ADDS METAR Data INFO
IDs: Format: Raw Decoded Include TAF

Data at: 0407 UTC 11 Dec 2017

KSTK 110350Z AUTO 00000KT 10SM CLR M02/M15 A3029 RMK AO2
KSTK 110330Z AUTO 17004KT 10SM CLR M01/M15 A3028 RMK AO2
KSTK 110310Z AUTO 00000KT 10SM CLR M01/M15 A3028 RMK AO2
KSTK 110250Z AUTO 00000KT 10SM CLR 00/M15 A3027 RMK AO2
KSTK 110230Z AUTO 23004KT 10SM CLR M01/M15 A3027 RMK AO2
KSTK 110210Z AUTO 17003KT 10SM CLR 02/M15 A3026 RMK AO2
KSTK 110145Z AUTO 28005KT 10SM CLR 01/M15 A3026 RMK AO2
KSTK 110125Z AUTO 26005KT 10SM CLR 03/M15 A3027 RMK AO2
KSTK 110110Z AUTO 23005KT 10SM CLR 02/M15 A3027 RMK AO2
KSTK 110045Z AUTO 29006KT 10SM CLR 07/M15 A3027 RMK AO2
KSTK 110025Z AUTO 30007KT 10SM CLR 06/M16 A3027 RMK AO2
KSTK 110010Z AUTO 30007KT 10SM CLR 05/M16 A3027 RMK AO2
KSTK 102345Z AUTO 30006KT 10SM CLR 07/M16 A3028 RMK AO2
KSTK 102330Z AUTO 29009KT 10SM CLR 06/M16 A3028 RMK AO2
KSTK 102310Z AUTO 31006KT 10SM CLR 10/M16 A3027 RMK AO2
KSTK 102250Z AUTO 35005KT 10SM CLR 13/M16 A3027 RMK AO2
KSTK 102230Z AUTO 35009KT 10SM CLR 16/M17 A3027 RMK AO2
KSTK 102210Z AUTO 33011KT 10SM CLR 17/M17 A3028 RMK AO2
KSTK 102150Z AUTO 32008KT 10SM CLR 17/M17 A3028 RMK AO2
KSTK 102130Z AUTO 31012G17KT 10SM CLR 17/M17 A3028 RMK AO2
KSTK 102110Z AUTO 31013G16KT 10SM CLR 17/M17 A3028 RMK AO2
KSTK 102050Z AUTO 33012KT 10SM CLR 17/M16 A3028 RMK AO2
KSTK 102030Z AUTO 32012KT 10SM CLR 17/M16 A3029 RMK AO2
KSTK 102010Z AUTO 31017G23KT 10SM CLR 17/M17 A3029 RMK AO2
KSTK 101945Z AUTO 33016G22KT 10SM CLR 17/M16 A3030 RMK AO2
KSTK 101930Z AUTO 33015G22KT 10SM CLR 16/M16 A3032 RMK AO2
KSTK 101910Z AUTO 31014G18KT 10SM CLR 16/M16 A3033 RMK AO2
KSTK 101850Z AUTO 34014KT 10SM CLR 16/M16 A3034 RMK AO2
KSTK 101830Z AUTO 32014G17KT 10SM CLR 16/M16 A3034 RMK AO2
KSTK 101810Z AUTO 31016G21KT 10SM CLR 16/M16 A3035 RMK AO2
KSTK 101750Z AUTO 32016G20KT 10SM CLR 16/M15 A3036 RMK AO2
KSTK 101730Z AUTO 26004KT 10SM CLR 11/M11 A3037 RMK AO2
KSTK 101710Z AUTO 19006KT 10SM CLR 06/M11 A3038 RMK AO2
KSTK 101650Z AUTO 17005KT 10SM CLR 05/M11 A3039 RMK AO2
KSTK 101630Z AUTO 18006KT 10SM CLR 02/M11 A3038 RMK AO2
KSTK 101610Z AUTO 18006KT 10SM CLR 00/M11 A3038 RMK AO2
KSTK 101550Z AUTO 18006KT 10SM CLR M01/M12 A3038 RMK AO2
KSTK 101530Z AUTO 19007KT 10SM CLR M02/M12 A3038 RMK AO2
KSTK 101510Z AUTO 18007KT 10SM CLR M03/M12 A3037 RMK AO2
KSTK 101450Z AUTO 16006KT 10SM CLR M05/M12 A3038 RMK AO2
KSTK 101425Z AUTO 21005KT 10SM CLR M06/M13 A3038 RMK AO2
KSTK 101410Z AUTO 20006KT 10SM CLR M06/M13 A3037 RMK AO2
KSTK 101350Z AUTO 20009KT 10SM CLR M07/M13 A3036 RMK AO2
KSTK 101330Z AUTO 19009KT 10SM CLR M06/M13 A3036 RMK AO2
KSTK 101310Z AUTO 20009KT 10SM CLR M06/M13 A3037 RMK AO2
KSTK 101250Z AUTO 20008KT 10SM CLR M06/M13 A3036 RMK AO2
KSTK 101230Z AUTO 19007KT 10SM CLR M06/M13 A3036 RMK AO2
KSTK 101210Z AUTO 20006KT 10SM CLR M06/M13 A3036 RMK AO2
KSTK 101145Z AUTO 18006KT 10SM CLR M06/M13 A3035 RMK AO2
KSTK 101125Z AUTO 18007KT 10SM CLR M06/M13 A3035 RMK AO2
KSTK 101110Z AUTO 17007KT 10SM CLR M06/M13 A3035 RMK AO2
KSTK 101045Z AUTO 20007KT 10SM CLR M05/M13 A3035 RMK AO2
KSTK 101030Z AUTO 19006KT 10SM CLR M04/M13 A3035 RMK AO2
KSTK 101010Z AUTO 20008KT 10SM CLR M03/M13 A3035 RMK AO2
KSTK 100945Z AUTO 20007KT 10SM CLR M02/M13 A3036 RMK AO2
KSTK 100930Z AUTO 19007KT 10SM CLR 00/M15 A3035 RMK AO2
KSTK 100910Z AUTO 19007KT 10SM CLR M02/M14 A3035 RMK AO2
KSTK 100850Z AUTO 00000KT 10SM CLR M01/M14 A3034 RMK AO2
KSTK 100830Z AUTO 18006KT 10SM CLR M02/M15 A3034 RMK AO2
KSTK 100810Z AUTO 30007KT 10SM CLR 03/M15 A3034 RMK AO2
KSTK 100750Z AUTO 31011KT 10SM CLR 02/M15 A3034 RMK AO2
KSTK 100730Z AUTO 33004KT 10SM CLR 00/M15 A3034 RMK AO2
KSTK 100710Z AUTO 00000KT 10SM CLR 01/M15 A3034 RMK AO2
KSTK 100645Z AUTO 31007KT 10SM CLR 03/M14 A3034 RMK AO2
KSTK 100625Z AUTO 26003KT 10SM CLR 03/M15 A3035 RMK AO2
KSTK 100610Z AUTO 31007KT 10SM CLR 04/M15 A3035 RMK AO2
KSTK 100550Z AUTO 32010G16KT 10SM CLR 05/M15 A3035 RMK AO2
KSTK 100530Z AUTO 31012KT 10SM CLR 06/M14 A3034 RMK AO2
KSTK 100510Z AUTO 31013KT 10SM CLR 05/M14 A3033 RMK AO2
KSTK 100445Z AUTO 31014KT 10SM CLR 05/M13 A3032 RMK AO2
KSTK 100430Z AUTO 31014KT 10SM CLR 04/M13 A3032 RMK AO2
KSTK 100410Z AUTO 31015KT 10SM CLR 04/M12 A3031 RMK AO2
KSTK 100350Z AUTO 31014KT 10SM CLR 04/M12 A3031 RMK AO2
KSTK 100330Z AUTO 31013KT 10SM CLR 04/M12 A3031 RMK AO2
KSTK 100310Z AUTO 31013KT 10SM CLR 05/M12 A3031 RMK AO2
KSTK 100250Z AUTO 31017KT 10SM CLR 06/M12 A3030 RMK AO2
KSTK 100230Z AUTO 31017G21KT 10SM CLR 06/M12 A3030 RMK AO2
KSTK 100210Z AUTO 31014KT 10SM CLR 05/M12 A3030 RMK AO2
KSTK 100150Z AUTO 31015KT 10SM CLR 05/M13 A3030 RMK AO2
KSTK 100130Z AUTO 31013KT 10SM CLR 05/M13 A3030 RMK AO2
KSTK 100110Z AUTO 31013KT 10SM CLR 05/M13 A3030 RMK AO2
KSTK 100045Z AUTO 31010KT 10SM CLR 06/M13 A3030 RMK AO2
KSTK 100030Z AUTO 32008KT 10SM CLR 06/M13 A3030 RMK AO2
KSTK 100010Z AUTO 32011KT 10SM CLR 07/M13 A3029 RMK AO2
KSTK 092345Z AUTO 32009KT 10SM CLR 07/M13 A3029 RMK AO2
KSTK 092330Z AUTO 31007KT 10SM CLR 07/M13 A3028 RMK AO2
KSTK 092310Z AUTO 33008KT 10SM CLR 10/M13 A3027 RMK AO2
KSTK 092250Z AUTO 33012KT 10SM CLR 12/M13 A3027 RMK AO2
KSTK 092230Z AUTO 34013KT 10SM CLR 13/M13 A3026 RMK AO2
KSTK 092210Z AUTO 34015G20KT 10SM CLR 14/M13 A3026 RMK AO2
KSTK 092145Z AUTO 35014KT 10SM CLR 14/M13 A3025 RMK AO2
KSTK 092125Z AUTO 34019G26KT 10SM CLR 15/M13 A3025 RMK AO2
KSTK 092105Z AUTO 34023KT 10SM CLR 15/M13 A3024 RMK AO2
KSTK 092045Z AUTO 33024G27KT 10SM CLR 15/M13 A3024 RMK AO2
KSTK 092025Z AUTO 35025G28KT 10SM CLR 15/M13 A3024 RMK AO2
KSTK 092005Z AUTO 33018G24KT 10SM CLR 15/M13 A3024 RMK AO2
KSTK 091950Z AUTO 34019G28KT 10SM CLR 15/M13 A3025 RMK AO2
KSTK 091930Z AUTO 34021G28KT 10SM CLR 15/M13 A3025 RMK AO2
KSTK 091910Z AUTO 34022G28KT 10SM CLR 15/M13 A3026 RMK AO2
KSTK 091850Z AUTO 35020G23KT 10SM CLR 15/M13 A3026 RMK AO2
KSTK 091830Z AUTO 35019G24KT 10SM CLR 15/M13 A3028 RMK AO2
KSTK 091810Z AUTO 35016G23KT 10SM CLR 15/M13 A3028 RMK AO2
KSTK 091745Z AUTO 34020KT 10SM CLR 13/M12 A3029 RMK AO2
KSTK 091725Z AUTO 35017G21KT 10SM CLR 13/M12 A3029 RMK AO2
KSTK 091710Z AUTO 35017G23KT 10SM CLR 13/M12 A3030 RMK AO2
KSTK 091650Z AUTO 26004KT 10SM CLR 10/M10 A3030 RMK AO2
KSTK 091630Z AUTO 22006KT 10SM CLR 07/M10 A3029 RMK AO2
KSTK 091610Z AUTO 18003KT 10SM CLR 05/M08 A3029 RMK AO2